Time;durP1;ratioP1;P1;durP2;ratioP2;P2;SDS_P1;SDS_P2;PMS_P1;PMS_P2;Temp;Humidity;BMP_temperature;BMP_pressure;BME280_temperature;BME280_humidity;BME280_pressure;Samples;Min_cycle;Max_cycle;Signal;HPM_P1;HPM_P2
2023/04/20 00:01:46;;;;;;;;;;;;;;;8.64;100.00;98582.34;4453531;32;19973;-63
2023/04/20 00:04:14;;;;;;;;;;;;;;;8.65;100.00;98581.41;4453162;32;19977;-63
2023/04/20 00:06:42;;;;;;;;;;;;;;;8.67;100.00;98574.25;4453677;32;20315;-63
2023/04/20 00:09:14;;;;;;;;;;;;;;;8.70;100.00;98571.41;4451995;32;19992;-63
2023/04/20 00:11:42;;;;;;;;;;;;;;;8.75;100.00;98573.63;4458071;32;20587;-63
2023/04/20 00:14:09;;;;;;;;;;;;;;;8.75;100.00;98575.41;4468736;32;20045;-63
2023/04/20 00:16:36;;;;;;;;;;;;;;;8.80;100.00;98575.84;4470681;32;20039;-63
2023/04/20 00:19:06;;;;;;;;;;;;;;;8.86;100.00;98567.50;4470864;32;20542;-63
2023/04/20 00:21:33;;;;;;;;;;;;;;;8.94;100.00;98569.44;4471087;32;19988;-63
2023/04/20 00:24:01;;;;;;;;;;;;;;;8.90;100.00;98571.47;4470795;32;19992;-63
2023/04/20 00:26:28;;;;;;;;;;;;;;;8.86;100.00;98568.31;4471358;32;20442;-63
2023/04/20 00:28:57;;;;;;;;;;;;;;;8.82;100.00;98564.31;4470892;32;20326;-63
2023/04/20 00:31:24;;;;;;;;;;;;;;;8.81;100.00;98562.66;4470865;32;19986;-63
2023/04/20 00:33:52;;;;;;;;;;;;;;;8.90;100.00;98570.66;4470824;32;20447;-63
2023/04/20 00:36:19;;;;;;;;;;;;;;;8.90;100.00;98566.25;4470936;32;19990;-63
2023/04/20 00:38:46;;;;;;;;;;;;;;;8.96;100.00;98563.13;4470940;32;19985;-63
2023/04/20 00:41:14;;;;;;;;;;;;;;;9.02;100.00;98573.06;4470762;32;20538;-63
2023/04/20 00:43:59;;;;;;;;;;;;;;;9.09;100.00;98562.09;4470812;32;19980;-63
2023/04/20 00:46:27;;;;;;;;;;;;;;;9.11;100.00;98568.00;4470598;32;19994;-63
2023/04/20 00:48:56;;;;;;;;;;;;;;;9.12;100.00;98574.88;4470776;32;20316;-63
2023/04/20 00:51:23;;;;;;;;;;;;;;;9.09;100.00;98575.16;4469510;32;20002;-63
2023/04/20 00:53:50;;;;;;;;;;;;;;;9.00;100.00;98572.34;4469247;32;19976;-63
2023/04/20 00:56:18;;;;;;;;;;;;;;;8.95;100.00;98573.69;4471044;32;20003;-63
2023/04/20 00:58:46;;;;;;;;;;;;;;;8.95;100.00;98573.69;4470746;32;20055;-63
2023/04/20 01:01:16;;;;;;;;;;;;;;;8.77;100.00;98568.28;4470698;32;19968;-63
2023/04/20 01:03:45;;;;;;;;;;;;;;;8.58;100.00;98566.38;4470736;32;19996;-63
2023/04/20 01:06:13;;;;;;;;;;;;;;;8.28;100.00;98560.97;4470860;32;20017;-63
2023/04/20 01:08:47;;;;;;;;;;;;;;;8.15;100.00;98561.16;4470574;32;20047;-63
2023/04/20 01:11:15;;;;;;;;;;;;;;;8.00;100.00;98572.84;4470491;32;20406;-63
2023/04/20 01:13:42;;;;;;;;;;;;;;;7.91;100.00;98564.00;4470425;32;20038;-63
2023/04/20 01:16:10;;;;;;;;;;;;;;;7.72;100.00;98566.44;4470401;32;19983;-63
2023/04/20 01:18:46;;;;;;;;;;;;;;;7.67;100.00;98571.22;4470171;32;20054;-63
2023/04/20 01:21:14;;;;;;;;;;;;;;;7.55;100.00;98568.63;4470537;32;20004;-63
2023/04/20 01:23:41;;;;;;;;;;;;;;;7.59;100.00;98564.00;4470356;32;19984;-63
2023/04/20 01:26:09;;;;;;;;;;;;;;;7.55;100.00;98567.81;4469853;32;20015;-63
2023/04/20 01:28:37;;;;;;;;;;;;;;;7.46;100.00;98566.75;4469300;32;20262;-63
2023/04/20 01:31:05;;;;;;;;;;;;;;;7.44;100.00;98561.66;4470413;32;19972;-63
2023/04/20 01:33:33;;;;;;;;;;;;;;;7.47;100.00;98560.59;4470264;32;20457;-63
2023/04/20 01:36:00;;;;;;;;;;;;;;;7.44;100.00;98560.84;4470300;32;20020;-63
2023/04/20 01:38:30;;;;;;;;;;;;;;;7.33;100.00;98566.91;4470254;32;19976;-63
2023/04/20 01:41:00;;;;;;;;;;;;;;;7.36;100.00;98565.81;4470555;32;19984;-63
2023/04/20 01:43:27;;;;;;;;;;;;;;;7.36;100.00;98565.81;4470009;32;20408;-63
2023/04/20 01:45:55;;;;;;;;;;;;;;;7.31;100.00;98560.97;4470235;32;20039;-63
2023/04/20 01:48:22;;;;;;;;;;;;;;;7.26;100.00;98570.94;4468822;32;20003;-63
2023/04/20 01:50:50;;;;;;;;;;;;;;;7.33;100.00;98568.66;4470249;32;19995;-63
2023/04/20 01:53:18;;;;;;;;;;;;;;;7.34;100.00;98563.34;4470051;32;19991;-63
2023/04/20 01:55:46;;;;;;;;;;;;;;;7.38;100.00;98576.97;4470229;32;20398;-63
2023/04/20 01:58:13;;;;;;;;;;;;;;;7.36;100.00;98564.06;4470182;32;20025;-63
2023/04/20 02:00:41;;;;;;;;;;;;;;;7.29;100.00;98568.91;4470066;32;20361;-63
2023/04/20 02:03:08;;;;;;;;;;;;;;;7.22;100.00;98570.38;4470049;32;19984;-63
2023/04/20 02:05:36;;;;;;;;;;;;;;;7.25;100.00;98572.72;4470063;32;20073;-63
2023/04/20 02:08:03;;;;;;;;;;;;;;;7.24;100.00;98571.06;4469942;32;19990;-63
2023/04/20 02:10:31;;;;;;;;;;;;;;;7.27;100.00;98576.03;4470177;32;20328;-63
2023/04/20 02:12:58;;;;;;;;;;;;;;;7.20;100.00;98569.63;4470190;32;20025;-63
2023/04/20 02:15:25;;;;;;;;;;;;;;;7.26;100.00;98571.75;4470105;32;20004;-63
2023/04/20 02:17:53;;;;;;;;;;;;;;;7.31;100.00;98566.19;4469709;32;20487;-63
2023/04/20 02:20:20;;;;;;;;;;;;;;;7.25;100.00;98567.53;4470093;32;20036;-63
2023/04/20 02:22:48;;;;;;;;;;;;;;;7.16;100.00;98573.47;4470035;32;20002;-63
2023/04/20 02:25:16;;;;;;;;;;;;;;;7.10;100.00;98566.94;4470041;32;19980;-63
2023/04/20 02:27:43;;;;;;;;;;;;;;;7.15;100.00;98570.97;4469935;32;19991;-63
2023/04/20 02:30:11;;;;;;;;;;;;;;;7.17;100.00;98572.50;4470041;32;19980;-63
2023/04/20 02:32:41;;;;;;;;;;;;;;;7.20;100.00;98569.63;4469947;32;20073;-63
2023/04/20 02:35:08;;;;;;;;;;;;;;;7.19;100.00;98561.94;4469967;32;19990;-63
2023/04/20 02:37:36;;;;;;;;;;;;;;;7.22;100.00;98567.75;4469605;32;19984;-63
2023/04/20 02:40:04;;;;;;;;;;;;;;;7.30;100.00;98567.16;4469858;32;19988;-63
2023/04/20 02:42:31;;;;;;;;;;;;;;;7.30;100.00;98564.56;4468676;32;20358;-63
2023/04/20 02:45:00;;;;;;;;;;;;;;;7.29;100.00;98568.09;4470123;32;19999;-63
2023/04/20 02:47:27;;;;;;;;;;;;;;;7.21;100.00;98567.87;4469840;32;20023;-63
2023/04/20 02:49:55;;;;;;;;;;;;;;;7.14;100.00;98564.91;4469757;32;19992;-63
2023/04/20 02:52:23;;;;;;;;;;;;;;;7.14;100.00;98575.34;4470006;32;20003;-63
2023/04/20 02:54:51;;;;;;;;;;;;;;;7.11;100.00;98570.38;4469680;32;20345;-63
2023/04/20 02:57:18;;;;;;;;;;;;;;;7.00;100.00;98573.00;4469684;32;19991;-63
2023/04/20 02:59:45;;;;;;;;;;;;;;;6.96;100.00;98572.38;4469978;32;19994;-63
2023/04/20 03:02:13;;;;;;;;;;;;;;;6.92;100.00;98576.19;4469959;32;19995;-63
2023/04/20 03:04:41;;;;;;;;;;;;;;;6.95;100.00;98575.09;4469861;32;20490;-63
2023/04/20 03:07:09;;;;;;;;;;;;;;;6.98;100.00;98580.94;4469921;32;20292;-63
2023/04/20 03:09:37;;;;;;;;;;;;;;;7.05;100.00;98576.06;4469679;32;20045;-63
2023/04/20 03:12:05;;;;;;;;;;;;;;;7.05;100.00;98576.88;4469641;32;19990;-63
2023/04/20 03:14:33;;;;;;;;;;;;;;;7.10;100.00;98576.50;4469554;32;20428;-63
2023/04/20 03:17:01;;;;;;;;;;;;;;;7.16;100.00;98578.66;4469511;32;20044;-63
2023/04/20 03:19:28;;;;;;;;;;;;;;;7.18;100.00;98581.16;4469603;32;20417;-63
2023/04/20 03:21:56;;;;;;;;;;;;;;;7.20;100.00;98582.66;4469324;32;20356;-63
2023/04/20 03:24:24;;;;;;;;;;;;;;;7.35;100.00;98578.03;4469440;32;20662;-63
2023/04/20 03:26:52;;;;;;;;;;;;;;;7.32;100.00;98572.25;4469849;32;20003;-63
2023/04/20 03:29:20;;;;;;;;;;;;;;;7.31;100.00;98581.81;4469441;32;20014;-63
2023/04/20 03:31:48;;;;;;;;;;;;;;;7.35;100.00;98577.22;4469867;32;19992;-63
2023/04/20 03:34:15;;;;;;;;;;;;;;;7.36;100.00;98577.09;4469179;32;19980;-63
2023/04/20 03:36:43;;;;;;;;;;;;;;;7.38;100.00;98580.41;4469630;32;19976;-63
2023/04/20 03:39:11;;;;;;;;;;;;;;;7.37;100.00;98581.34;4469512;32;20352;-63
2023/04/20 03:41:38;;;;;;;;;;;;;;;7.35;100.00;98579.81;4469328;32;19972;-63
2023/04/20 03:44:06;;;;;;;;;;;;;;;7.33;100.00;98589.50;4467994;32;20005;-63
2023/04/20 03:46:33;;;;;;;;;;;;;;;7.25;100.00;98590.97;4469159;32;19980;-63
2023/04/20 03:49:02;;;;;;;;;;;;;;;7.21;100.00;98596.53;4469524;32;20404;-63
2023/04/20 03:51:30;;;;;;;;;;;;;;;7.13;100.00;98591.09;4471271;32;20007;-63
2023/04/20 03:53:57;;;;;;;;;;;;;;;7.05;100.00;98595.09;4471146;32;20112;-63
2023/04/20 03:56:26;;;;;;;;;;;;;;;6.98;100.00;98598.31;4470932;32;19984;-63
2023/04/20 03:58:54;;;;;;;;;;;;;;;6.85;100.00;98596.66;4471249;32;20042;-63
2023/04/20 04:01:22;;;;;;;;;;;;;;;6.74;100.00;98601.88;4471233;32;19976;-63
2023/04/20 04:03:50;;;;;;;;;;;;;;;6.78;100.00;98600.66;4470959;32;19984;-63
2023/04/20 04:06:17;;;;;;;;;;;;;;;6.83;100.00;98598.56;4470967;32;20327;-63
2023/04/20 04:08:45;;;;;;;;;;;;;;;6.94;100.00;98597.72;4470939;32;20338;-63
2023/04/20 04:11:12;;;;;;;;;;;;;;;6.99;100.00;98597.38;4471034;32;19995;-63
2023/04/20 04:13:40;;;;;;;;;;;;;;;7.13;100.00;98601.50;4470731;32;20041;-64
2023/04/20 04:16:08;;;;;;;;;;;;;;;7.13;100.00;98599.75;4470841;32;20413;-63
2023/04/20 04:18:36;;;;;;;;;;;;;;;6.98;100.00;98598.31;4470382;32;20554;-64
2023/04/20 04:21:05;;;;;;;;;;;;;;;6.80;100.00;98596.19;4467766;32;19985;-63
2023/04/20 04:23:34;;;;;;;;;;;;;;;6.80;100.00;98593.59;4470327;32;20060;-63
2023/04/20 04:26:03;;;;;;;;;;;;;;;6.99;100.00;98598.19;4470339;32;20051;-62
2023/04/20 04:28:31;;;;;;;;;;;;;;;7.23;100.00;98599.84;4470915;32;20337;-62
2023/04/20 04:31:04;;;;;;;;;;;;;;;7.41;100.00;98598.37;4460272;32;19992;-63
2023/04/20 04:33:33;;;;;;;;;;;;;;;7.64;100.00;98601.81;4468256;32;19991;-63
2023/04/20 04:36:01;;;;;;;;;;;;;;;7.79;100.00;98601.50;4467268;32;19973;-64
2023/04/20 04:38:32;;;;;;;;;;;;;;;7.92;100.00;98602.19;4466603;32;20111;-64
2023/04/20 04:40:59;;;;;;;;;;;;;;;8.04;100.00;98599.50;4465975;32;20342;-64
2023/04/20 04:43:28;;;;;;;;;;;;;;;8.21;100.00;98604.19;4468696;32;19976;-62
2023/04/20 04:45:57;;;;;;;;;;;;;;;8.32;100.00;98603.31;4466926;31;20012;-63
2023/04/20 04:48:25;;;;;;;;;;;;;;;8.53;100.00;98611.16;4481099;32;20028;-64
2023/04/20 04:50:53;;;;;;;;;;;;;;;8.73;100.00;98606.06;4484702;31;20681;-63
2023/04/20 04:53:20;;;;;;;;;;;;;;;8.87;100.00;98605.69;4474765;32;20033;-63
2023/04/20 04:55:48;;;;;;;;;;;;;;;9.01;100.00;98607.16;4470248;32;19972;-63
2023/04/20 04:58:15;;;;;;;;;;;;;;;9.16;100.00;98610.22;4469695;32;19988;-62
2023/04/20 05:00:42;;;;;;;;;;;;;;;9.31;100.00;98611.53;4477743;32;19984;-63
2023/04/20 05:03:10;;;;;;;;;;;;;;;9.55;100.00;98620.81;4481311;32;20040;-62
2023/04/20 05:05:37;;;;;;;;;;;;;;;9.72;100.00;98617.53;4470926;32;19994;-64
2023/04/20 05:08:05;;;;;;;;;;;;;;;9.88;100.00;98616.19;4467632;32;19976;-63
2023/04/20 05:10:32;;;;;;;;;;;;;;;9.93;100.00;98621.81;4468503;32;19988;-64
2023/04/20 05:13:00;;;;;;;;;;;;;;;10.07;100.00;98621.44;4468136;32;167749;-63
2023/04/20 05:15:27;;;;;;;;;;;;;;;10.22;100.00;98621.84;4473711;32;20010;-63
2023/04/20 05:17:54;;;;;;;;;;;;;;;10.38;100.00;98616.06;4465912;32;20025;-63
2023/04/20 05:20:22;;;;;;;;;;;;;;;10.59;100.00;98622.94;4467905;32;20011;-63
2023/04/20 05:22:49;;;;;;;;;;;;;;;10.75;100.00;98623.19;4470366;32;19984;-64
2023/04/20 05:25:17;;;;;;;;;;;;;;;10.93;100.00;98620.66;4476689;31;19975;-64
2023/04/20 05:27:45;;;;;;;;;;;;;;;10.97;100.00;98629.03;4472728;32;20602;-64
2023/04/20 05:30:12;;;;;;;;;;;;;;;11.16;100.00;98628.97;4474738;31;20033;-64
2023/04/20 05:32:48;;;;;;;;;;;;;;;11.27;100.00;98627.97;4474954;32;20031;-63
2023/04/20 05:35:19;;;;;;;;;;;;;;;11.34;100.00;98634.28;4482006;31;19975;-63
2023/04/20 05:37:46;;;;;;;;;;;;;;;11.44;100.00;98633.41;4476559;31;20703;-64
2023/04/20 05:40:14;;;;;;;;;;;;;;;11.63;100.00;98632.47;4468066;32;20493;-63
2023/04/20 05:42:42;;;;;;;;;;;;;;;11.82;100.00;98637.59;4470566;32;19998;-64
2023/04/20 05:45:09;;;;;;;;;;;;;;;11.90;100.00;98642.94;4471171;31;20350;-62
2023/04/20 05:47:37;;;;;;;;;;;;;;;12.02;100.00;98645.37;4468200;31;19999;-62
2023/04/20 05:50:05;;;;;;;;;;;;;;;12.13;99.18;98639.09;4480018;32;19995;-62
2023/04/20 05:52:32;;;;;;;;;;;;;;;12.20;98.98;98645.37;4483982;31;20393;-63
2023/04/20 05:55:00;;;;;;;;;;;;;;;12.10;100.00;98650.72;4472432;31;19983;-63
2023/04/20 05:57:27;;;;;;;;;;;;;;;12.32;99.11;98645.97;4461087;32;19972;-64
2023/04/20 05:59:54;;;;;;;;;;;;;;;12.41;97.42;98650.31;4468860;32;20011;-64
2023/04/20 06:02:22;;;;;;;;;;;;;;;12.32;96.09;98649.41;4468117;32;20014;-64
2023/04/20 06:04:50;;;;;;;;;;;;;;;12.41;96.54;98655.56;4463583;32;19999;-65
2023/04/20 06:07:20;;;;;;;;;;;;;;;12.34;95.43;98646.63;4464826;32;19972;-65
2023/04/20 06:09:47;;;;;;;;;;;;;;;12.44;95.34;98644.75;4465606;32;19987;-65
2023/04/20 06:12:15;;;;;;;;;;;;;;;12.49;94.98;98655.66;4464903;32;20051;-65
2023/04/20 06:14:42;;;;;;;;;;;;;;;12.76;95.03;98652.06;4466283;32;19980;-64
2023/04/20 06:17:09;;;;;;;;;;;;;;;12.80;92.94;98652.56;4463842;32;19977;-65
2023/04/20 06:19:37;;;;;;;;;;;;;;;12.93;96.67;98658.25;4468532;32;20015;-65
2023/04/20 06:22:08;;;;;;;;;;;;;;;13.14;91.05;98662.31;4465724;32;20019;-63
2023/04/20 06:24:37;;;;;;;;;;;;;;;13.14;89.86;98659.66;4465466;32;19998;-64
2023/04/20 06:27:05;;;;;;;;;;;;;;;13.22;88.81;98659.72;4463233;32;19984;-65
2023/04/20 06:29:33;;;;;;;;;;;;;;;13.34;90.66;98659.47;4468557;32;20018;-66
2023/04/20 06:32:00;;;;;;;;;;;;;;;13.68;86.31;98663.91;4467139;32;19980;-66
2023/04/20 06:34:28;;;;;;;;;;;;;;;13.65;85.89;98660.59;4467187;32;20000;-66
2023/04/20 06:36:55;;;;;;;;;;;;;;;13.66;82.66;98662.25;4468235;32;19976;-66
2023/04/20 06:39:22;;;;;;;;;;;;;;;13.53;84.99;98661.03;4463792;32;19998;-66
2023/04/20 06:41:49;;;;;;;;;;;;;;;13.52;81.67;98662.00;4467344;32;20048;-66
2023/04/20 06:44:21;;;;;;;;;;;;;;;13.53;82.38;98664.50;4465564;32;19998;-66
2023/04/20 06:46:48;;;;;;;;;;;;;;;13.48;82.32;98672.03;4450143;32;20890;-65
2023/04/20 06:49:16;;;;;;;;;;;;;;;13.70;84.55;98667.19;4463544;32;20007;-65
2023/04/20 06:51:44;;;;;;;;;;;;;;;13.88;83.69;98667.06;4466358;32;20062;-66
2023/04/20 06:54:11;;;;;;;;;;;;;;;13.67;82.58;98668.31;4463460;32;20003;-67
2023/04/20 06:56:38;;;;;;;;;;;;;;;13.72;80.42;98673.13;4465131;32;19991;-66
2023/04/20 06:59:05;;;;;;;;;;;;;;;13.91;87.84;98670.19;4464828;32;20023;-66
2023/04/20 07:01:33;;;;;;;;;;;;;;;14.12;82.48;98674.22;4465753;32;20002;-67
2023/04/20 07:04:01;;;;;;;;;;;;;;;14.17;84.26;98677.16;4465192;32;20730;-67
2023/04/20 07:06:29;;;;;;;;;;;;;;;14.45;87.95;98676.88;4463582;32;20565;-68
2023/04/20 07:08:57;;;;;;;;;;;;;;;14.49;86.51;98671.12;4461747;32;20048;-68
2023/04/20 07:11:24;;;;;;;;;;;;;;;14.53;80.98;98674.25;4460528;32;20318;-68
2023/04/20 07:13:52;;;;;;;;;;;;;;;14.65;81.41;98670.31;4463780;32;20397;-66
2023/04/20 07:16:19;;;;;;;;;;;;;;;14.76;83.01;98670.97;4466260;32;19998;-66
2023/04/20 07:18:47;;;;;;;;;;;;;;;14.41;79.62;98673.72;4465128;32;19992;-65
2023/04/20 07:21:14;;;;;;;;;;;;;;;14.45;78.97;98674.25;4464705;32;19976;-66
2023/04/20 07:23:41;;;;;;;;;;;;;;;14.46;76.03;98676.72;4466518;32;20067;-66
2023/04/20 07:26:11;;;;;;;;;;;;;;;14.54;79.68;98675.91;4464905;32;20033;-66
2023/04/20 07:28:38;;;;;;;;;;;;;;;14.61;77.24;98679.56;4466688;32;19996;-66
2023/04/20 07:31:06;;;;;;;;;;;;;;;14.54;74.98;98681.16;4464837;32;19988;-66
2023/04/20 07:33:34;;;;;;;;;;;;;;;14.60;80.56;98675.22;4466541;32;20750;-65
2023/04/20 07:36:03;;;;;;;;;;;;;;;14.77;84.12;98688.44;4464862;32;20047;-66
2023/04/20 07:38:30;;;;;;;;;;;;;;;14.90;78.76;98684.31;4467106;32;20679;-67
2023/04/20 07:40:58;;;;;;;;;;;;;;;15.05;81.21;98681.81;4466918;32;19980;-68
2023/04/20 07:43:25;;;;;;;;;;;;;;;15.19;80.40;98684.75;4463906;32;19988;-67
2023/04/20 07:45:53;;;;;;;;;;;;;;;15.21;79.10;98685.41;4464524;32;19980;-68
2023/04/20 07:48:21;;;;;;;;;;;;;;;15.20;79.60;98683.75;4460901;32;20041;-68
2023/04/20 07:50:48;;;;;;;;;;;;;;;15.43;78.30;98689.94;4467363;32;20019;-68
2023/04/20 07:53:15;;;;;;;;;;;;;;;15.49;76.91;98692.88;4465481;32;20044;-67
2023/04/20 07:55:43;;;;;;;;;;;;;;;15.32;71.61;98692.97;4463686;32;19984;-65
2023/04/20 07:58:11;;;;;;;;;;;;;;;15.55;73.29;98690.41;4465266;32;19968;-64
2023/04/20 08:00:38;;;;;;;;;;;;;;;15.76;73.15;98689.81;4464035;32;19988;-65
2023/04/20 08:03:06;;;;;;;;;;;;;;;15.79;71.36;98693.94;4468645;31;20058;-66
2023/04/20 08:05:33;;;;;;;;;;;;;;;15.67;73.17;98682.94;4467242;32;19983;-66
2023/04/20 08:08:01;;;;;;;;;;;;;;;15.85;71.07;98687.16;4461030;32;20000;-66
2023/04/20 08:10:28;;;;;;;;;;;;;;;15.73;66.18;98690.16;4465928;32;20064;-65
2023/04/20 08:12:56;;;;;;;;;;;;;;;15.68;68.07;98686.38;4465168;31;20282;-66
2023/04/20 08:15:23;;;;;;;;;;;;;;;15.43;66.37;98692.59;4467363;32;20006;-66
2023/04/20 08:17:51;;;;;;;;;;;;;;;15.61;67.17;98691.56;4465878;32;19998;-67
2023/04/20 08:20:19;;;;;;;;;;;;;;;15.73;69.11;98690.16;4469566;32;21793;-66
2023/04/20 08:22:48;;;;;;;;;;;;;;;16.01;66.34;98688.91;4465435;31;20386;-64
2023/04/20 08:25:15;;;;;;;;;;;;;;;15.67;65.26;98690.87;4462818;32;20132;-66
2023/04/20 08:27:43;;;;;;;;;;;;;;;15.88;65.07;98697.37;4455001;32;20003;-66
2023/04/20 08:30:10;;;;;;;;;;;;;;;16.01;62.81;98697.66;4464417;32;20318;-66
2023/04/20 08:32:39;;;;;;;;;;;;;;;15.52;63.63;98688.13;4463030;32;20012;-65
2023/04/20 08:35:07;;;;;;;;;;;;;;;15.73;64.63;98692.81;4461162;31;20035;-66
2023/04/20 08:37:36;;;;;;;;;;;;;;;16.08;64.62;98693.31;4465937;32;20026;-67
2023/04/20 08:40:04;;;;;;;;;;;;;;;16.07;62.80;98694.31;4466521;32;20019;-66
2023/04/20 08:42:31;;;;;;;;;;;;;;;15.99;66.33;98691.72;4467022;32;20051;-67
2023/04/20 08:44:59;;;;;;;;;;;;;;;15.98;69.69;98686.62;4468644;32;20005;-66
2023/04/20 08:47:26;;;;;;;;;;;;;;;16.16;64.16;98684.50;4464247;32;20373;-66
2023/04/20 08:49:54;;;;;;;;;;;;;;;15.96;62.71;98684.97;4465037;32;19980;-67
2023/04/20 08:52:21;;;;;;;;;;;;;;;15.81;60.94;98686.69;4467323;32;19977;-66
2023/04/20 08:54:49;;;;;;;;;;;;;;;15.92;60.33;98690.75;4465530;32;20040;-66
2023/04/20 08:57:24;;;;;;;;;;;;;;;15.81;62.19;98688.53;4463228;32;20018;-66
2023/04/20 08:59:52;;;;;;;;;;;;;;;16.26;63.18;98694.84;4463383;32;20035;-65
2023/04/20 09:02:20;;;;;;;;;;;;;;;16.58;61.61;98687.66;4466861;32;20348;-65
2023/04/20 09:04:48;;;;;;;;;;;;;;;16.30;58.70;98685.56;4464250;32;19980;-66
2023/04/20 09:07:19;;;;;;;;;;;;;;;16.55;62.95;98688.03;4466135;32;20035;-66
2023/04/20 09:09:56;;;;;;;;;;;;;;;17.02;66.61;98681.72;4467589;32;20029;-66
2023/04/20 09:12:24;;;;;;;;;;;;;;;17.16;64.93;98680.88;4462084;32;19992;-67
2023/04/20 09:14:51;;;;;;;;;;;;;;;17.18;55.82;98683.34;4462040;32;19988;-67
2023/04/20 09:17:31;;;;;;;;;;;;;;;17.31;57.11;98680.91;4462015;32;20060;-67
2023/04/20 09:19:59;;;;;;;;;;;;;;;17.47;54.91;98677.25;4462059;32;20002;-67
2023/04/20 09:22:34;;;;;;;;;;;;;;;17.49;52.87;98683.16;4464813;32;20015;-67
2023/04/20 09:25:13;;;;;;;;;;;;;;;17.44;54.29;98682.91;4463743;32;20629;-67
2023/04/20 09:27:40;;;;;;;;;;;;;;;17.12;53.99;98684.91;4464096;32;20009;-67
2023/04/20 09:30:08;;;;;;;;;;;;;;;17.24;53.17;98684.44;4468043;32;20003;-66
2023/04/20 09:32:36;;;;;;;;;;;;;;;17.51;58.24;98678.50;4464745;32;19979;-66
2023/04/20 09:35:03;;;;;;;;;;;;;;;17.44;62.43;98682.06;4465615;32;20353;-66
2023/04/20 09:37:31;;;;;;;;;;;;;;;17.60;63.73;98673.13;4467181;32;20082;-67
2023/04/20 09:39:59;;;;;;;;;;;;;;;17.69;61.77;98669.34;4467903;32;19988;-66
2023/04/20 09:42:26;;;;;;;;;;;;;;;17.59;56.28;98677.56;4462667;32;19988;-67
2023/04/20 09:44:54;;;;;;;;;;;;;;;17.79;55.04;98672.53;4463295;32;19980;-67
2023/04/20 09:47:21;;;;;;;;;;;;;;;18.20;59.98;98674.66;4464847;32;20002;-67
2023/04/20 09:49:49;;;;;;;;;;;;;;;18.66;52.05;98664.66;4464340;32;20689;-67
2023/04/20 09:52:18;;;;;;;;;;;;;;;19.28;54.89;98665.72;4463238;32;19996;-67
2023/04/20 09:54:45;;;;;;;;;;;;;;;19.23;55.17;98670.78;4465501;32;20021;-67
2023/04/20 09:57:13;;;;;;;;;;;;;;;19.21;51.05;98673.63;4466935;32;20033;-66
2023/04/20 09:59:42;;;;;;;;;;;;;;;19.01;55.66;98668.19;4464280;32;20048;-67
2023/04/20 10:02:11;;;;;;;;;;;;;;;18.87;57.09;98667.28;4461675;32;19984;-66
2023/04/20 10:04:52;;;;;;;;;;;;;;;18.32;58.75;98668.81;4465192;32;19988;-67
2023/04/20 10:07:24;;;;;;;;;;;;;;;17.77;59.27;98677.19;4469441;31;20033;-66
2023/04/20 10:10:07;;;;;;;;;;;;;;;17.77;58.77;98671.88;4471221;32;20094;-66
2023/04/20 10:12:51;;;;;;;;;;;;;;;17.64;58.69;98672.56;4468017;32;19991;-65
2023/04/20 10:15:20;;;;;;;;;;;;;;;17.75;58.59;98668.63;4465402;32;20002;-66
2023/04/20 10:17:48;;;;;;;;;;;;;;;17.80;58.08;98666.22;4479386;31;20619;-67
2023/04/20 10:20:25;;;;;;;;;;;;;;;17.46;59.67;98666.84;4473898;32;20394;-66
2023/04/20 10:22:54;;;;;;;;;;;;;;;17.16;59.79;98669.47;4467632;32;20479;-66
2023/04/20 10:25:22;;;;;;;;;;;;;;;17.24;59.05;98663.28;4469073;32;19998;-67
2023/04/20 10:27:53;;;;;;;;;;;;;;;17.36;58.82;98659.16;4472953;32;20446;-67
2023/04/20 10:30:21;;;;;;;;;;;;;;;17.69;59.36;98664.06;4467261;32;19988;-66
2023/04/20 10:32:48;;;;;;;;;;;;;;;18.56;63.84;98657.00;4466083;32;19971;-67
2023/04/20 10:35:16;;;;;;;;;;;;;;;19.26;63.96;98649.97;4466527;32;20728;-67
2023/04/20 10:37:49;;;;;;;;;;;;;;;19.04;60.56;98651.06;4471355;32;21807;-67
2023/04/20 10:40:26;;;;;;;;;;;;;;;18.83;59.01;98638.63;4477980;32;19993;-66
2023/04/20 10:42:55;;;;;;;;;;;;;;;18.59;53.06;98646.84;4467492;31;19984;-66
2023/04/20 10:45:33;;;;;;;;;;;;;;;19.15;54.71;98645.19;4470789;32;20047;-66
2023/04/20 10:48:10;;;;;;;;;;;;;;;19.53;56.98;98638.63;4464325;32;20007;-65
2023/04/20 10:50:37;;;;;;;;;;;;;;;18.95;53.41;98642.41;4474302;32;19983;-67
2023/04/20 10:53:06;;;;;;;;;;;;;;;18.59;54.59;98641.53;4467616;32;20078;-66
2023/04/20 10:55:33;;;;;;;;;;;;;;;18.40;53.85;98644.84;4466858;32;20048;-66
2023/04/20 10:58:01;;;;;;;;;;;;;;;18.39;51.37;98638.69;4466727;32;19992;-66
2023/04/20 11:00:29;;;;;;;;;;;;;;;18.27;50.80;98635.75;4478111;32;20049;-66
2023/04/20 11:02:57;;;;;;;;;;;;;;;18.16;48.71;98633.59;4477851;31;20032;-65
2023/04/20 11:05:25;;;;;;;;;;;;;;;18.32;48.33;98621.94;4468450;32;19984;-65
2023/04/20 11:07:53;;;;;;;;;;;;;;;18.86;50.87;98623.16;4469336;32;19988;-66
2023/04/20 11:10:22;;;;;;;;;;;;;;;19.41;46.38;98630.41;4471273;32;20012;-65
2023/04/20 11:12:49;;;;;;;;;;;;;;;20.19;49.63;98635.38;4468549;32;19991;-66
2023/04/20 11:15:17;;;;;;;;;;;;;;;20.78;46.31;98630.31;4472062;32;20367;-66
2023/04/20 11:17:45;;;;;;;;;;;;;;;20.69;48.19;98627.84;4473230;32;19993;-65
2023/04/20 11:20:15;;;;;;;;;;;;;;;20.09;49.50;98632.28;4472793;31;20359;-65
2023/04/20 11:22:43;;;;;;;;;;;;;;;19.41;51.10;98625.09;4468232;32;20353;-66
2023/04/20 11:25:11;;;;;;;;;;;;;;;18.97;52.30;98622.63;4469379;31;20018;-66
2023/04/20 11:27:40;;;;;;;;;;;;;;;18.65;53.73;98620.53;4471457;32;19984;-66
2023/04/20 11:30:08;;;;;;;;;;;;;;;18.32;53.19;98618.44;4468995;32;20037;-65
2023/04/20 11:32:36;;;;;;;;;;;;;;;18.43;54.18;98615.28;4471120;31;19980;-65
2023/04/20 11:35:07;;;;;;;;;;;;;;;18.38;52.89;98615.00;4466249;32;20043;-64
2023/04/20 11:37:52;;;;;;;;;;;;;;;18.37;51.64;98618.69;4460480;32;19984;-64
2023/04/20 11:40:20;;;;;;;;;;;;;;;18.61;52.69;98615.63;4468390;32;19993;-64
2023/04/20 11:42:47;;;;;;;;;;;;;;;18.47;50.84;98626.31;4469932;32;20978;-64
2023/04/20 11:45:15;;;;;;;;;;;;;;;18.32;50.91;98627.22;4467990;32;20051;-64
2023/04/20 11:47:42;;;;;;;;;;;;;;;18.16;50.26;98617.69;4466274;32;20056;-65
2023/04/20 11:50:11;;;;;;;;;;;;;;;18.36;50.55;98619.69;4466822;32;19999;-66
2023/04/20 11:52:38;;;;;;;;;;;;;;;18.53;50.27;98623.75;4474820;32;20108;-66
2023/04/20 11:55:05;;;;;;;;;;;;;;;18.99;51.55;98617.12;4481797;31;20037;-67
2023/04/20 11:57:33;;;;;;;;;;;;;;;19.25;50.17;98615.63;4481530;32;19988;-66
2023/04/20 12:00:01;;;;;;;;;;;;;;;19.44;51.31;98616.72;4477517;31;19995;-66
2023/04/20 12:02:40;;;;;;;;;;;;;;;19.58;52.28;98618.44;4476540;31;19984;-66
2023/04/20 12:05:08;;;;;;;;;;;;;;;20.05;56.62;98612.47;4467132;32;19984;-65
2023/04/20 12:07:36;;;;;;;;;;;;;;;20.39;50.38;98612.28;4470969;32;19988;-65
2023/04/20 12:10:03;;;;;;;;;;;;;;;21.06;50.18;98606.06;4467498;32;20349;-66
2023/04/20 12:12:33;;;;;;;;;;;;;;;21.00;45.47;98606.91;4469725;31;19984;-66
2023/04/20 12:15:01;;;;;;;;;;;;;;;21.03;47.51;98607.31;4461637;32;19980;-66
2023/04/20 12:17:28;;;;;;;;;;;;;;;20.81;45.85;98605.94;4468786;32;19990;-66
2023/04/20 12:19:56;;;;;;;;;;;;;;;19.86;50.08;98606.87;4474129;31;19988;-66
2023/04/20 12:22:24;;;;;;;;;;;;;;;19.57;52.00;98608.81;4474061;31;19980;-66
2023/04/20 12:24:51;;;;;;;;;;;;;;;19.53;50.63;98609.41;4472792;32;20011;-66
2023/04/20 12:27:20;;;;;;;;;;;;;;;19.54;47.25;98608.41;4477205;32;19976;-66
2023/04/20 12:29:47;;;;;;;;;;;;;;;19.01;48.94;98598.34;4476831;32;19999;-66
2023/04/20 12:32:14;;;;;;;;;;;;;;;18.69;51.97;98595.28;4477386;32;19983;-65
2023/04/20 12:34:43;;;;;;;;;;;;;;;18.76;52.11;98596.16;4473417;31;20043;-66
2023/04/20 12:37:10;;;;;;;;;;;;;;;18.57;51.60;98597.63;4473677;32;20033;-67
2023/04/20 12:39:38;;;;;;;;;;;;;;;18.33;52.72;98601.53;4481290;32;19991;-66
2023/04/20 12:42:06;;;;;;;;;;;;;;;18.31;52.42;98595.59;4474542;31;19992;-66
2023/04/20 12:44:34;;;;;;;;;;;;;;;18.57;51.64;98598.44;4476724;32;20325;-66
2023/04/20 12:47:02;;;;;;;;;;;;;;;18.55;50.62;98602.31;4480412;32;19975;-66
2023/04/20 12:49:29;;;;;;;;;;;;;;;19.02;52.26;98594.69;4485842;31;19998;-67
2023/04/20 12:51:59;;;;;;;;;;;;;;;19.47;48.87;98590.59;4467831;32;21927;-66